sensor_id;sensor_type;location;lat;lon;timestamp;P1;durP1;ratioP1;P2;durP2;ratioP2
28266;SDS011;15525;45.568;5.448;2022-08-01T00:01:41;4.43;;;3.97;;
28266;SDS011;15525;45.568;5.448;2022-08-01T00:04:06;4.80;;;4.13;;
28266;SDS011;15525;45.568;5.448;2022-08-01T00:06:31;5.05;;;4.25;;
28266;SDS011;15525;45.568;5.448;2022-08-01T00:08:57;4.90;;;4.45;;
28266;SDS011;15525;45.568;5.448;2022-08-01T00:11:22;6.85;;;4.38;;
28266;SDS011;15525;45.568;5.448;2022-08-01T00:13:48;5.38;;;4.50;;
28266;SDS011;15525;45.568;5.448;2022-08-01T00:16:13;4.72;;;4.25;;
28266;SDS011;15525;45.568;5.448;2022-08-01T00:18:40;5.05;;;4.20;;
28266;SDS011;15525;45.568;5.448;2022-08-01T00:21:06;5.05;;;4.30;;
28266;SDS011;15525;45.568;5.448;2022-08-01T00:23:31;4.90;;;4.00;;
28266;SDS011;15525;45.568;5.448;2022-08-01T00:25:57;4.68;;;4.28;;
28266;SDS011;15525;45.568;5.448;2022-08-01T00:28:22;6.60;;;4.43;;
28266;SDS011;15525;45.568;5.448;2022-08-01T00:30:47;4.45;;;3.95;;
28266;SDS011;15525;45.568;5.448;2022-08-01T00:33:13;7.18;;;4.25;;
28266;SDS011;15525;45.568;5.448;2022-08-01T00:35:38;4.43;;;3.90;;
28266;SDS011;15525;45.568;5.448;2022-08-01T00:38:04;5.53;;;4.60;;
28266;SDS011;15525;45.568;5.448;2022-08-01T00:40:29;4.57;;;3.83;;
28266;SDS011;15525;45.568;5.448;2022-08-01T00:42:54;4.63;;;4.22;;
28266;SDS011;15525;45.568;5.448;2022-08-01T00:45:20;7.93;;;4.38;;
28266;SDS011;15525;45.568;5.448;2022-08-01T00:47:45;4.53;;;4.05;;
28266;SDS011;15525;45.568;5.448;2022-08-01T00:50:12;4.82;;;4.05;;
28266;SDS011;15525;45.568;5.448;2022-08-01T00:52:37;6.03;;;4.68;;
28266;SDS011;15525;45.568;5.448;2022-08-01T00:55:04;5.82;;;4.85;;
28266;SDS011;15525;45.568;5.448;2022-08-01T00:57:30;4.80;;;4.18;;
28266;SDS011;15525;45.568;5.448;2022-08-01T00:59:56;5.05;;;4.20;;
28266;SDS011;15525;45.568;5.448;2022-08-01T01:02:21;6.05;;;4.38;;
28266;SDS011;15525;45.568;5.448;2022-08-01T01:04:46;4.68;;;3.67;;
28266;SDS011;15525;45.568;5.448;2022-08-01T01:09:56;6.57;;;4.38;;
28266;SDS011;15525;45.568;5.448;2022-08-01T01:12:37;4.18;;;3.78;;
28266;SDS011;15525;45.568;5.448;2022-08-01T01:15:08;4.85;;;4.30;;
28266;SDS011;15525;45.568;5.448;2022-08-01T01:17:52;4.60;;;4.10;;
28266;SDS011;15525;45.568;5.448;2022-08-01T01:20:32;5.28;;;4.13;;
28266;SDS011;15525;45.568;5.448;2022-08-01T01:23:07;4.33;;;3.93;;
28266;SDS011;15525;45.568;5.448;2022-08-01T01:31:49;4.68;;;4.18;;
28266;SDS011;15525;45.568;5.448;2022-08-01T01:34:19;5.13;;;4.20;;
28266;SDS011;15525;45.568;5.448;2022-08-01T01:36:47;4.72;;;4.07;;
28266;SDS011;15525;45.568;5.448;2022-08-01T01:39:15;7.05;;;4.50;;
28266;SDS011;15525;45.568;5.448;2022-08-01T01:41:42;5.28;;;4.57;;
28266;SDS011;15525;45.568;5.448;2022-08-01T01:44:09;4.70;;;4.30;;
28266;SDS011;15525;45.568;5.448;2022-08-01T01:46:35;4.72;;;4.15;;
28266;SDS011;15525;45.568;5.448;2022-08-01T01:49:02;5.47;;;4.00;;
28266;SDS011;15525;45.568;5.448;2022-08-01T01:51:28;6.53;;;4.38;;
28266;SDS011;15525;45.568;5.448;2022-08-01T01:53:55;5.43;;;4.57;;
28266;SDS011;15525;45.568;5.448;2022-08-01T01:56:22;5.65;;;4.95;;
28266;SDS011;15525;45.568;5.448;2022-08-01T01:58:53;5.30;;;4.30;;
28266;SDS011;15525;45.568;5.448;2022-08-01T02:01:21;5.05;;;4.40;;
28266;SDS011;15525;45.568;5.448;2022-08-01T02:03:50;5.25;;;4.32;;
28266;SDS011;15525;45.568;5.448;2022-08-01T02:06:18;5.88;;;4.50;;
28266;SDS011;15525;45.568;5.448;2022-08-01T02:08:45;6.68;;;4.82;;
28266;SDS011;15525;45.568;5.448;2022-08-01T02:11:12;6.55;;;4.72;;
28266;SDS011;15525;45.568;5.448;2022-08-01T02:13:44;5.70;;;4.75;;
28266;SDS011;15525;45.568;5.448;2022-08-01T02:16:13;5.30;;;4.50;;
28266;SDS011;15525;45.568;5.448;2022-08-01T02:18:40;6.53;;;4.72;;
28266;SDS011;15525;45.568;5.448;2022-08-01T02:21:08;6.68;;;4.72;;
28266;SDS011;15525;45.568;5.448;2022-08-01T02:23:37;5.78;;;4.85;;
28266;SDS011;15525;45.568;5.448;2022-08-01T02:26:06;5.40;;;4.88;;
28266;SDS011;15525;45.568;5.448;2022-08-01T02:28:41;5.68;;;4.40;;
28266;SDS011;15525;45.568;5.448;2022-08-01T02:31:11;6.95;;;4.47;;
28266;SDS011;15525;45.568;5.448;2022-08-01T02:33:41;5.07;;;4.57;;
28266;SDS011;15525;45.568;5.448;2022-08-01T02:36:08;4.43;;;4.03;;
28266;SDS011;15525;45.568;5.448;2022-08-01T02:38:37;5.50;;;4.68;;
28266;SDS011;15525;45.568;5.448;2022-08-01T02:41:10;6.10;;;4.88;;
28266;SDS011;15525;45.568;5.448;2022-08-01T02:43:40;4.80;;;4.30;;
28266;SDS011;15525;45.568;5.448;2022-08-01T02:46:11;6.50;;;4.78;;
28266;SDS011;15525;45.568;5.448;2022-08-01T02:48:42;5.10;;;4.60;;
28266;SDS011;15525;45.568;5.448;2022-08-01T02:51:09;5.20;;;4.60;;
28266;SDS011;15525;45.568;5.448;2022-08-01T02:53:36;6.10;;;5.20;;
28266;SDS011;15525;45.568;5.448;2022-08-01T02:56:06;5.70;;;4.55;;
28266;SDS011;15525;45.568;5.448;2022-08-01T02:58:34;4.90;;;4.28;;
28266;SDS011;15525;45.568;5.448;2022-08-01T03:01:02;6.68;;;4.30;;
28266;SDS011;15525;45.568;5.448;2022-08-01T03:03:30;5.20;;;4.18;;
28266;SDS011;15525;45.568;5.448;2022-08-01T03:05:57;4.55;;;4.15;;
28266;SDS011;15525;45.568;5.448;2022-08-01T03:08:24;7.13;;;4.78;;
28266;SDS011;15525;45.568;5.448;2022-08-01T03:10:50;6.10;;;4.47;;
28266;SDS011;15525;45.568;5.448;2022-08-01T03:13:18;6.38;;;4.80;;
28266;SDS011;15525;45.568;5.448;2022-08-01T03:15:46;6.18;;;4.53;;
28266;SDS011;15525;45.568;5.448;2022-08-01T03:18:13;8.60;;;4.88;;
28266;SDS011;15525;45.568;5.448;2022-08-01T03:20:41;7.40;;;4.80;;
28266;SDS011;15525;45.568;5.448;2022-08-01T03:23:09;7.40;;;5.35;;
28266;SDS011;15525;45.568;5.448;2022-08-01T03:25:38;6.45;;;5.10;;
28266;SDS011;15525;45.568;5.448;2022-08-01T03:28:06;7.40;;;5.13;;
28266;SDS011;15525;45.568;5.448;2022-08-01T03:30:33;6.45;;;5.28;;
28266;SDS011;15525;45.568;5.448;2022-08-01T03:33:01;7.45;;;4.70;;
28266;SDS011;15525;45.568;5.448;2022-08-01T03:35:35;5.80;;;4.90;;
28266;SDS011;15525;45.568;5.448;2022-08-01T03:38:04;6.72;;;4.57;;
28266;SDS011;15525;45.568;5.448;2022-08-01T03:40:37;6.53;;;5.00;;
28266;SDS011;15525;45.568;5.448;2022-08-01T03:43:07;7.80;;;4.90;;
28266;SDS011;15525;45.568;5.448;2022-08-01T03:45:38;7.82;;;4.53;;
28266;SDS011;15525;45.568;5.448;2022-08-01T03:48:10;6.15;;;4.80;;
28266;SDS011;15525;45.568;5.448;2022-08-01T03:50:41;6.65;;;5.32;;
28266;SDS011;15525;45.568;5.448;2022-08-01T03:53:10;5.93;;;4.78;;
28266;SDS011;15525;45.568;5.448;2022-08-01T03:55:37;7.60;;;5.30;;
28266;SDS011;15525;45.568;5.448;2022-08-01T03:58:06;6.20;;;4.93;;
28266;SDS011;15525;45.568;5.448;2022-08-01T04:00:34;5.13;;;4.30;;
28266;SDS011;15525;45.568;5.448;2022-08-01T04:03:04;5.95;;;4.80;;
28266;SDS011;15525;45.568;5.448;2022-08-01T04:05:32;6.13;;;4.50;;
28266;SDS011;15525;45.568;5.448;2022-08-01T04:07:58;6.32;;;5.10;;
28266;SDS011;15525;45.568;5.448;2022-08-01T04:10:24;6.40;;;5.22;;
28266;SDS011;15525;45.568;5.448;2022-08-01T04:12:50;5.47;;;4.93;;
28266;SDS011;15525;45.568;5.448;2022-08-01T04:15:17;6.25;;;5.30;;
28266;SDS011;15525;45.568;5.448;2022-08-01T04:17:42;5.93;;;5.30;;
28266;SDS011;15525;45.568;5.448;2022-08-01T04:20:08;4.85;;;4.30;;
28266;SDS011;15525;45.568;5.448;2022-08-01T04:22:34;10.77;;;5.43;;
28266;SDS011;15525;45.568;5.448;2022-08-01T04:25:01;9.68;;;6.03;;
28266;SDS011;15525;45.568;5.448;2022-08-01T04:27:35;7.20;;;5.32;;
28266;SDS011;15525;45.568;5.448;2022-08-01T04:30:02;6.30;;;5.55;;
28266;SDS011;15525;45.568;5.448;2022-08-01T04:32:29;6.05;;;5.45;;
28266;SDS011;15525;45.568;5.448;2022-08-01T04:34:59;7.57;;;5.35;;
28266;SDS011;15525;45.568;5.448;2022-08-01T04:37:28;5.40;;;4.90;;
28266;SDS011;15525;45.568;5.448;2022-08-01T04:39:54;6.25;;;5.65;;
28266;SDS011;15525;45.568;5.448;2022-08-01T04:42:20;5.85;;;5.13;;
28266;SDS011;15525;45.568;5.448;2022-08-01T04:44:47;5.72;;;5.03;;
28266;SDS011;15525;45.568;5.448;2022-08-01T04:47:12;8.27;;;5.55;;
28266;SDS011;15525;45.568;5.448;2022-08-01T04:49:39;5.93;;;5.30;;
28266;SDS011;15525;45.568;5.448;2022-08-01T04:52:05;6.30;;;5.40;;
28266;SDS011;15525;45.568;5.448;2022-08-01T04:54:32;6.38;;;5.72;;
28266;SDS011;15525;45.568;5.448;2022-08-01T04:57:02;6.18;;;5.15;;
28266;SDS011;15525;45.568;5.448;2022-08-01T04:59:29;7.57;;;5.63;;
28266;SDS011;15525;45.568;5.448;2022-08-01T05:02:11;6.35;;;5.72;;
28266;SDS011;15525;45.568;5.448;2022-08-01T05:07:07;7.15;;;4.80;;
28266;SDS011;15525;45.568;5.448;2022-08-01T05:09:33;6.28;;;5.47;;
28266;SDS011;15525;45.568;5.448;2022-08-01T05:11:59;9.10;;;5.85;;
28266;SDS011;15525;45.568;5.448;2022-08-01T05:14:26;6.57;;;4.97;;
28266;SDS011;15525;45.568;5.448;2022-08-01T05:16:53;8.57;;;5.20;;
28266;SDS011;15525;45.568;5.448;2022-08-01T05:19:19;7.78;;;5.30;;
28266;SDS011;15525;45.568;5.448;2022-08-01T05:21:45;8.40;;;5.70;;
28266;SDS011;15525;45.568;5.448;2022-08-01T05:24:11;6.95;;;5.90;;
28266;SDS011;15525;45.568;5.448;2022-08-01T05:26:37;6.32;;;5.35;;
28266;SDS011;15525;45.568;5.448;2022-08-01T05:29:03;6.82;;;5.00;;
28266;SDS011;15525;45.568;5.448;2022-08-01T05:31:28;7.47;;;5.15;;
28266;SDS011;15525;45.568;5.448;2022-08-01T05:33:54;10.80;;;5.43;;
28266;SDS011;15525;45.568;5.448;2022-08-01T05:36:19;10.82;;;5.68;;
28266;SDS011;15525;45.568;5.448;2022-08-01T05:38:45;8.30;;;5.28;;
28266;SDS011;15525;45.568;5.448;2022-08-01T05:41:10;9.20;;;5.65;;
28266;SDS011;15525;45.568;5.448;2022-08-01T05:43:36;9.55;;;6.03;;
28266;SDS011;15525;45.568;5.448;2022-08-01T05:46:01;10.30;;;6.03;;
28266;SDS011;15525;45.568;5.448;2022-08-01T05:48:27;8.00;;;5.20;;
28266;SDS011;15525;45.568;5.448;2022-08-01T05:50:53;7.68;;;5.05;;
28266;SDS011;15525;45.568;5.448;2022-08-01T05:53:18;9.77;;;5.90;;
28266;SDS011;15525;45.568;5.448;2022-08-01T05:55:44;10.88;;;5.60;;
28266;SDS011;15525;45.568;5.448;2022-08-01T05:58:09;9.40;;;6.22;;
28266;SDS011;15525;45.568;5.448;2022-08-01T06:00:34;7.28;;;5.40;;
28266;SDS011;15525;45.568;5.448;2022-08-01T06:03:00;6.13;;;5.47;;
28266;SDS011;15525;45.568;5.448;2022-08-01T06:05:25;7.85;;;4.80;;
28266;SDS011;15525;45.568;5.448;2022-08-01T06:07:51;7.82;;;5.75;;
28266;SDS011;15525;45.568;5.448;2022-08-01T06:10:16;8.02;;;5.93;;
28266;SDS011;15525;45.568;5.448;2022-08-01T06:12:41;7.57;;;6.78;;
28266;SDS011;15525;45.568;5.448;2022-08-01T06:15:08;8.57;;;7.05;;
28266;SDS011;15525;45.568;5.448;2022-08-01T06:17:34;7.63;;;6.57;;
28266;SDS011;15525;45.568;5.448;2022-08-01T06:20:00;10.00;;;7.65;;
28266;SDS011;15525;45.568;5.448;2022-08-01T06:22:25;10.27;;;8.23;;
28266;SDS011;15525;45.568;5.448;2022-08-01T06:24:51;8.45;;;6.25;;
28266;SDS011;15525;45.568;5.448;2022-08-01T06:27:16;9.70;;;7.30;;
28266;SDS011;15525;45.568;5.448;2022-08-01T06:29:42;7.18;;;5.72;;
28266;SDS011;15525;45.568;5.448;2022-08-01T06:32:08;16.20;;;6.65;;
28266;SDS011;15525;45.568;5.448;2022-08-01T06:34:34;11.43;;;6.07;;
28266;SDS011;15525;45.568;5.448;2022-08-01T06:37:00;6.88;;;5.65;;
28266;SDS011;15525;45.568;5.448;2022-08-01T06:39:25;11.05;;;5.57;;
28266;SDS011;15525;45.568;5.448;2022-08-01T06:41:51;11.13;;;6.28;;
28266;SDS011;15525;45.568;5.448;2022-08-01T06:44:16;6.88;;;5.40;;
28266;SDS011;15525;45.568;5.448;2022-08-01T06:46:42;7.38;;;5.15;;
28266;SDS011;15525;45.568;5.448;2022-08-01T06:49:07;5.68;;;5.05;;
28266;SDS011;15525;45.568;5.448;2022-08-01T06:51:32;6.45;;;4.90;;
28266;SDS011;15525;45.568;5.448;2022-08-01T06:53:58;6.05;;;4.28;;
28266;SDS011;15525;45.568;5.448;2022-08-01T06:56:23;5.10;;;4.55;;
28266;SDS011;15525;45.568;5.448;2022-08-01T06:58:49;7.07;;;4.38;;
28266;SDS011;15525;45.568;5.448;2022-08-01T07:01:15;6.00;;;4.60;;
28266;SDS011;15525;45.568;5.448;2022-08-01T07:03:41;6.40;;;4.68;;
28266;SDS011;15525;45.568;5.448;2022-08-01T07:06:06;5.30;;;4.53;;
28266;SDS011;15525;45.568;5.448;2022-08-01T07:08:31;5.97;;;4.38;;
28266;SDS011;15525;45.568;5.448;2022-08-01T07:10:57;5.57;;;4.60;;
28266;SDS011;15525;45.568;5.448;2022-08-01T07:13:25;8.43;;;4.72;;
28266;SDS011;15525;45.568;5.448;2022-08-01T07:15:53;7.03;;;4.63;;
28266;SDS011;15525;45.568;5.448;2022-08-01T07:18:18;5.35;;;4.45;;
28266;SDS011;15525;45.568;5.448;2022-08-01T07:20:44;8.00;;;4.97;;
28266;SDS011;15525;45.568;5.448;2022-08-01T07:23:11;6.90;;;4.50;;
28266;SDS011;15525;45.568;5.448;2022-08-01T07:25:37;9.60;;;4.43;;
28266;SDS011;15525;45.568;5.448;2022-08-01T07:28:03;5.03;;;3.90;;
28266;SDS011;15525;45.568;5.448;2022-08-01T07:30:28;8.05;;;4.78;;
28266;SDS011;15525;45.568;5.448;2022-08-01T07:32:53;7.30;;;4.30;;
28266;SDS011;15525;45.568;5.448;2022-08-01T07:35:19;7.07;;;4.18;;
28266;SDS011;15525;45.568;5.448;2022-08-01T07:37:44;5.63;;;4.10;;
28266;SDS011;15525;45.568;5.448;2022-08-01T07:40:10;4.05;;;3.45;;
28266;SDS011;15525;45.568;5.448;2022-08-01T07:42:35;5.53;;;3.63;;
28266;SDS011;15525;45.568;5.448;2022-08-01T07:45:01;4.57;;;4.00;;
28266;SDS011;15525;45.568;5.448;2022-08-01T07:47:26;4.50;;;4.10;;
28266;SDS011;15525;45.568;5.448;2022-08-01T07:49:52;4.97;;;3.90;;
28266;SDS011;15525;45.568;5.448;2022-08-01T07:52:23;4.72;;;3.80;;
28266;SDS011;15525;45.568;5.448;2022-08-01T07:54:49;5.90;;;3.63;;
28266;SDS011;15525;45.568;5.448;2022-08-01T07:57:14;6.45;;;4.00;;
28266;SDS011;15525;45.568;5.448;2022-08-01T07:59:40;4.53;;;3.90;;
28266;SDS011;15525;45.568;5.448;2022-08-01T08:02:05;4.95;;;3.92;;
28266;SDS011;15525;45.568;5.448;2022-08-01T08:04:30;5.03;;;3.83;;
28266;SDS011;15525;45.568;5.448;2022-08-01T08:06:56;5.22;;;3.90;;
28266;SDS011;15525;45.568;5.448;2022-08-01T08:09:21;5.60;;;3.70;;
28266;SDS011;15525;45.568;5.448;2022-08-01T08:11:47;4.68;;;3.67;;
28266;SDS011;15525;45.568;5.448;2022-08-01T08:14:13;4.50;;;3.72;;
28266;SDS011;15525;45.568;5.448;2022-08-01T08:16:39;4.25;;;3.60;;
28266;SDS011;15525;45.568;5.448;2022-08-01T08:19:05;5.50;;;3.85;;
28266;SDS011;15525;45.568;5.448;2022-08-01T08:21:30;4.20;;;3.80;;
28266;SDS011;15525;45.568;5.448;2022-08-01T08:23:56;6.68;;;3.83;;
28266;SDS011;15525;45.568;5.448;2022-08-01T08:26:40;4.30;;;3.90;;
28266;SDS011;15525;45.568;5.448;2022-08-01T08:29:06;4.20;;;3.75;;
28266;SDS011;15525;45.568;5.448;2022-08-01T08:31:31;3.60;;;3.30;;
28266;SDS011;15525;45.568;5.448;2022-08-01T08:33:57;8.73;;;3.88;;
28266;SDS011;15525;45.568;5.448;2022-08-01T08:36:23;4.20;;;3.80;;
28266;SDS011;15525;45.568;5.448;2022-08-01T08:38:48;5.25;;;4.13;;
28266;SDS011;15525;45.568;5.448;2022-08-01T08:41:14;5.45;;;3.60;;
28266;SDS011;15525;45.568;5.448;2022-08-01T08:43:39;4.78;;;3.80;;
28266;SDS011;15525;45.568;5.448;2022-08-01T08:46:05;5.40;;;4.13;;
28266;SDS011;15525;45.568;5.448;2022-08-01T08:48:33;5.85;;;4.00;;
28266;SDS011;15525;45.568;5.448;2022-08-01T08:50:59;4.90;;;4.03;;
28266;SDS011;15525;45.568;5.448;2022-08-01T08:53:26;4.90;;;3.97;;
28266;SDS011;15525;45.568;5.448;2022-08-01T08:55:52;5.07;;;3.97;;
28266;SDS011;15525;45.568;5.448;2022-08-01T08:58:19;4.40;;;4.00;;
28266;SDS011;15525;45.568;5.448;2022-08-01T09:00:46;5.53;;;3.70;;
28266;SDS011;15525;45.568;5.448;2022-08-01T09:03:12;4.97;;;3.22;;
28266;SDS011;15525;45.568;5.448;2022-08-01T09:05:37;4.43;;;3.75;;
28266;SDS011;15525;45.568;5.448;2022-08-01T09:08:06;5.90;;;3.60;;
28266;SDS011;15525;45.568;5.448;2022-08-01T09:10:32;4.95;;;3.65;;
28266;SDS011;15525;45.568;5.448;2022-08-01T09:15:56;5.15;;;3.10;;
28266;SDS011;15525;45.568;5.448;2022-08-01T09:18:38;4.97;;;3.13;;
28266;SDS011;15525;45.568;5.448;2022-08-01T09:26:18;3.30;;;3.00;;
28266;SDS011;15525;45.568;5.448;2022-08-01T09:28:47;3.22;;;3.00;;
28266;SDS011;15525;45.568;5.448;2022-08-01T09:31:16;4.05;;;2.80;;
28266;SDS011;15525;45.568;5.448;2022-08-01T09:34:01;3.83;;;2.80;;
28266;SDS011;15525;45.568;5.448;2022-08-01T09:39:18;4.38;;;2.55;;
28266;SDS011;15525;45.568;5.448;2022-08-01T09:41:44;5.30;;;2.83;;
28266;SDS011;15525;45.568;5.448;2022-08-01T09:44:10;3.20;;;2.90;;
28266;SDS011;15525;45.568;5.448;2022-08-01T09:46:36;3.75;;;3.10;;
28266;SDS011;15525;45.568;5.448;2022-08-01T09:49:14;4.38;;;2.90;;
28266;SDS011;15525;45.568;5.448;2022-08-01T09:51:39;5.03;;;2.90;;
28266;SDS011;15525;45.568;5.448;2022-08-01T09:54:05;5.63;;;3.20;;
28266;SDS011;15525;45.568;5.448;2022-08-01T09:56:38;4.45;;;3.08;;
28266;SDS011;15525;45.568;5.448;2022-08-01T09:59:07;3.78;;;3.00;;
28266;SDS011;15525;45.568;5.448;2022-08-01T10:01:43;3.58;;;3.28;;
28266;SDS011;15525;45.568;5.448;2022-08-01T10:04:15;4.60;;;3.00;;
28266;SDS011;15525;45.568;5.448;2022-08-01T10:06:46;3.42;;;2.90;;
28266;SDS011;15525;45.568;5.448;2022-08-01T10:09:14;3.55;;;3.25;;
28266;SDS011;15525;45.568;5.448;2022-08-01T10:11:50;3.90;;;3.15;;
28266;SDS011;15525;45.568;5.448;2022-08-01T10:14:16;3.33;;;3.03;;
28266;SDS011;15525;45.568;5.448;2022-08-01T10:16:45;3.55;;;3.22;;
28266;SDS011;15525;45.568;5.448;2022-08-01T10:19:11;3.38;;;3.08;;
28266;SDS011;15525;45.568;5.448;2022-08-01T10:21:36;3.58;;;3.00;;
28266;SDS011;15525;45.568;5.448;2022-08-01T10:24:03;2.80;;;2.60;;
28266;SDS011;15525;45.568;5.448;2022-08-01T10:26:32;6.15;;;3.10;;
28266;SDS011;15525;45.568;5.448;2022-08-01T10:28:58;3.30;;;2.85;;
28266;SDS011;15525;45.568;5.448;2022-08-01T10:31:24;3.33;;;2.85;;
28266;SDS011;15525;45.568;5.448;2022-08-01T10:33:52;3.90;;;2.70;;
28266;SDS011;15525;45.568;5.448;2022-08-01T10:36:19;2.72;;;2.53;;
28266;SDS011;15525;45.568;5.448;2022-08-01T10:38:45;5.28;;;2.80;;
28266;SDS011;15525;45.568;5.448;2022-08-01T10:41:11;3.30;;;3.00;;
28266;SDS011;15525;45.568;5.448;2022-08-01T10:43:40;3.50;;;2.80;;
28266;SDS011;15525;45.568;5.448;2022-08-01T10:46:06;3.28;;;2.92;;
28266;SDS011;15525;45.568;5.448;2022-08-01T10:49:15;3.08;;;2.60;;
28266;SDS011;15525;45.568;5.448;2022-08-01T10:51:23;4.50;;;2.75;;
28266;SDS011;15525;45.568;5.448;2022-08-01T10:53:52;3.92;;;2.53;;
28266;SDS011;15525;45.568;5.448;2022-08-01T10:56:18;3.28;;;2.60;;
28266;SDS011;15525;45.568;5.448;2022-08-01T10:58:45;3.90;;;2.60;;
28266;SDS011;15525;45.568;5.448;2022-08-01T11:01:24;3.63;;;2.50;;
28266;SDS011;15525;45.568;5.448;2022-08-01T11:06:26;2.90;;;2.53;;
28266;SDS011;15525;45.568;5.448;2022-08-01T11:12:02;2.85;;;2.65;;
28266;SDS011;15525;45.568;5.448;2022-08-01T11:20:11;2.65;;;2.40;;
28266;SDS011;15525;45.568;5.448;2022-08-01T11:30:47;2.33;;;2.13;;
28266;SDS011;15525;45.568;5.448;2022-08-01T11:33:15;2.50;;;2.30;;
28266;SDS011;15525;45.568;5.448;2022-08-01T11:38:42;3.25;;;2.40;;
28266;SDS011;15525;45.568;5.448;2022-08-01T11:43:57;2.40;;;2.20;;
28266;SDS011;15525;45.568;5.448;2022-08-01T11:49:29;3.83;;;2.10;;
28266;SDS011;15525;45.568;5.448;2022-08-01T11:52:00;2.15;;;1.95;;
28266;SDS011;15525;45.568;5.448;2022-08-01T11:54:32;3.03;;;1.90;;
28266;SDS011;15525;45.568;5.448;2022-08-01T11:57:14;2.58;;;2.38;;
28266;SDS011;15525;45.568;5.448;2022-08-01T11:59:45;3.00;;;2.30;;
28266;SDS011;15525;45.568;5.448;2022-08-01T12:02:18;2.35;;;2.15;;
28266;SDS011;15525;45.568;5.448;2022-08-01T12:07:15;2.00;;;1.90;;
28266;SDS011;15525;45.568;5.448;2022-08-01T12:09:41;2.03;;;1.90;;
28266;SDS011;15525;45.568;5.448;2022-08-01T12:12:07;5.43;;;2.10;;
28266;SDS011;15525;45.568;5.448;2022-08-01T12:14:33;2.42;;;2.20;;
28266;SDS011;15525;45.568;5.448;2022-08-01T12:16:59;2.08;;;1.83;;
28266;SDS011;15525;45.568;5.448;2022-08-01T12:19:24;6.07;;;1.98;;
28266;SDS011;15525;45.568;5.448;2022-08-01T12:24:36;3.03;;;1.98;;
28266;SDS011;15525;45.568;5.448;2022-08-01T12:27:02;2.47;;;2.05;;
28266;SDS011;15525;45.568;5.448;2022-08-01T12:29:35;1.88;;;1.77;;
28266;SDS011;15525;45.568;5.448;2022-08-01T12:32:01;4.22;;;2.30;;
28266;SDS011;15525;45.568;5.448;2022-08-01T12:34:28;3.22;;;2.10;;
28266;SDS011;15525;45.568;5.448;2022-08-01T12:36:57;2.30;;;2.10;;
28266;SDS011;15525;45.568;5.448;2022-08-01T12:39:34;2.08;;;1.88;;
28266;SDS011;15525;45.568;5.448;2022-08-01T12:42:00;2.22;;;2.03;;
28266;SDS011;15525;45.568;5.448;2022-08-01T12:44:26;2.95;;;1.98;;
28266;SDS011;15525;45.568;5.448;2022-08-01T12:46:54;2.03;;;1.92;;
28266;SDS011;15525;45.568;5.448;2022-08-01T12:49:21;2.30;;;2.10;;
28266;SDS011;15525;45.568;5.448;2022-08-01T12:51:47;2.15;;;1.92;;
28266;SDS011;15525;45.568;5.448;2022-08-01T12:54:13;1.95;;;1.80;;
28266;SDS011;15525;45.568;5.448;2022-08-01T12:56:38;1.73;;;1.63;;
28266;SDS011;15525;45.568;5.448;2022-08-01T13:01:50;3.15;;;1.88;;
28266;SDS011;15525;45.568;5.448;2022-08-01T13:04:16;2.38;;;1.83;;
28266;SDS011;15525;45.568;5.448;2022-08-01T13:06:42;2.15;;;1.95;;
28266;SDS011;15525;45.568;5.448;2022-08-01T13:09:08;2.03;;;1.90;;
28266;SDS011;15525;45.568;5.448;2022-08-01T13:11:36;2.10;;;1.92;;
28266;SDS011;15525;45.568;5.448;2022-08-01T13:14:02;2.45;;;1.92;;
28266;SDS011;15525;45.568;5.448;2022-08-01T13:16:27;3.85;;;1.90;;
28266;SDS011;15525;45.568;5.448;2022-08-01T13:18:53;1.88;;;1.67;;
28266;SDS011;15525;45.568;5.448;2022-08-01T13:21:22;2.33;;;1.65;;
28266;SDS011;15525;45.568;5.448;2022-08-01T13:24:05;1.73;;;1.63;;
28266;SDS011;15525;45.568;5.448;2022-08-01T13:26:39;3.75;;;2.00;;
28266;SDS011;15525;45.568;5.448;2022-08-01T13:29:05;1.98;;;1.70;;
28266;SDS011;15525;45.568;5.448;2022-08-01T13:31:40;1.92;;;1.80;;
28266;SDS011;15525;45.568;5.448;2022-08-01T13:34:06;2.05;;;1.80;;
28266;SDS011;15525;45.568;5.448;2022-08-01T13:36:33;1.80;;;1.70;;
28266;SDS011;15525;45.568;5.448;2022-08-01T13:38:59;2.65;;;1.70;;
28266;SDS011;15525;45.568;5.448;2022-08-01T13:41:44;1.98;;;1.88;;
28266;SDS011;15525;45.568;5.448;2022-08-01T13:44:10;3.10;;;1.60;;
28266;SDS011;15525;45.568;5.448;2022-08-01T13:46:36;1.70;;;1.60;;
28266;SDS011;15525;45.568;5.448;2022-08-01T13:49:03;2.80;;;1.92;;
28266;SDS011;15525;45.568;5.448;2022-08-01T13:51:29;1.98;;;1.77;;
28266;SDS011;15525;45.568;5.448;2022-08-01T13:53:55;2.17;;;1.70;;
28266;SDS011;15525;45.568;5.448;2022-08-01T13:56:21;1.73;;;1.52;;
28266;SDS011;15525;45.568;5.448;2022-08-01T13:58:46;1.92;;;1.55;;
28266;SDS011;15525;45.568;5.448;2022-08-01T14:01:12;1.90;;;1.70;;
28266;SDS011;15525;45.568;5.448;2022-08-01T14:03:38;1.45;;;1.35;;
28266;SDS011;15525;45.568;5.448;2022-08-01T14:06:03;1.60;;;1.50;;
28266;SDS011;15525;45.568;5.448;2022-08-01T14:08:29;2.38;;;1.50;;
28266;SDS011;15525;45.568;5.448;2022-08-01T14:10:55;2.75;;;1.67;;
28266;SDS011;15525;45.568;5.448;2022-08-01T14:13:23;2.85;;;1.50;;
28266;SDS011;15525;45.568;5.448;2022-08-01T14:15:49;2.70;;;1.83;;
28266;SDS011;15525;45.568;5.448;2022-08-01T14:18:15;1.55;;;1.45;;
28266;SDS011;15525;45.568;5.448;2022-08-01T14:20:41;2.40;;;1.70;;
28266;SDS011;15525;45.568;5.448;2022-08-01T14:23:07;1.75;;;1.65;;
28266;SDS011;15525;45.568;5.448;2022-08-01T14:25:32;1.85;;;1.70;;
28266;SDS011;15525;45.568;5.448;2022-08-01T14:27:58;1.83;;;1.60;;
28266;SDS011;15525;45.568;5.448;2022-08-01T14:30:23;6.70;;;1.90;;
28266;SDS011;15525;45.568;5.448;2022-08-01T14:32:51;1.50;;;1.40;;
28266;SDS011;15525;45.568;5.448;2022-08-01T14:35:17;1.52;;;1.30;;
28266;SDS011;15525;45.568;5.448;2022-08-01T14:37:42;1.40;;;1.30;;
28266;SDS011;15525;45.568;5.448;2022-08-01T14:40:08;2.22;;;1.25;;
28266;SDS011;15525;45.568;5.448;2022-08-01T14:42:36;1.50;;;1.40;;
28266;SDS011;15525;45.568;5.448;2022-08-01T14:45:03;3.97;;;1.30;;
28266;SDS011;15525;45.568;5.448;2022-08-01T14:47:33;1.40;;;1.30;;
28266;SDS011;15525;45.568;5.448;2022-08-01T14:49:59;1.40;;;1.30;;
28266;SDS011;15525;45.568;5.448;2022-08-01T14:52:25;1.40;;;1.30;;
28266;SDS011;15525;45.568;5.448;2022-08-01T14:54:50;1.60;;;1.50;;
28266;SDS011;15525;45.568;5.448;2022-08-01T14:57:16;2.45;;;1.33;;
28266;SDS011;15525;45.568;5.448;2022-08-01T14:59:43;2.47;;;1.20;;
28266;SDS011;15525;45.568;5.448;2022-08-01T15:02:08;1.38;;;1.27;;
28266;SDS011;15525;45.568;5.448;2022-08-01T15:04:35;2.17;;;1.23;;
28266;SDS011;15525;45.568;5.448;2022-08-01T15:07:01;1.65;;;1.30;;
28266;SDS011;15525;45.568;5.448;2022-08-01T15:09:26;1.45;;;1.35;;
28266;SDS011;15525;45.568;5.448;2022-08-01T15:11:52;1.95;;;1.42;;
28266;SDS011;15525;45.568;5.448;2022-08-01T15:14:17;1.42;;;1.33;;
28266;SDS011;15525;45.568;5.448;2022-08-01T15:17:01;2.15;;;1.40;;
28266;SDS011;15525;45.568;5.448;2022-08-01T15:19:27;2.25;;;1.33;;
28266;SDS011;15525;45.568;5.448;2022-08-01T15:21:52;2.35;;;1.48;;
28266;SDS011;15525;45.568;5.448;2022-08-01T15:24:18;1.95;;;1.70;;
28266;SDS011;15525;45.568;5.448;2022-08-01T15:26:43;1.60;;;1.50;;
28266;SDS011;15525;45.568;5.448;2022-08-01T15:29:09;1.88;;;1.40;;
28266;SDS011;15525;45.568;5.448;2022-08-01T15:31:34;1.70;;;1.60;;
28266;SDS011;15525;45.568;5.448;2022-08-01T15:33:59;1.73;;;1.40;;
28266;SDS011;15525;45.568;5.448;2022-08-01T15:36:25;3.08;;;1.50;;
28266;SDS011;15525;45.568;5.448;2022-08-01T15:38:50;2.65;;;1.55;;
28266;SDS011;15525;45.568;5.448;2022-08-01T15:41:16;2.88;;;1.73;;
28266;SDS011;15525;45.568;5.448;2022-08-01T15:43:41;2.85;;;1.50;;
28266;SDS011;15525;45.568;5.448;2022-08-01T15:46:06;3.03;;;1.58;;
28266;SDS011;15525;45.568;5.448;2022-08-01T15:48:32;2.30;;;1.55;;